Accueil
METAR-TAF:

METAR-TAF

Aéroports :

Mackinac Island Airport

Mackinac Island, Michigan, États-Unis

latitude: 45-51-54N, longitude: 084-38-14W, altitude: 226 m

Observation

Le bulletin a été fait il y a 17 minutes, à 09:15 UTC
Vent 11 kt de est/nord-est
Température 10°C
Humidité 100%
Pression 1010 hPa
Visibilité: 8.0 km
Ciel couvert à une hauteur de 300 ft
brume

METAR: KMCD 210915Z AUTO 06011KT 5SM BR OVC003 10/10 A2982 RMK AO2 T01010101 P0001

Heure: 05:32 (09:32 UTC)


TAF: absent

Observations et prévisions météorologiques de plus de 4000 aéroports (messages METAR et TAF).

Les stations disponibles sont représentées par des disques jaunes et rouges sur la carte.

Passer la souris dessus pour voir le nom de la station.

Cliquer dessus pour voir les observations et prévisions météorologiques.

Pour changer de carte: cliquez sur les boutons verts avec une croix noire pour zoomer, sur le bouton vert avec un tiret pour effectuer un zoom arrière, ou sur les flèches vertes pour les cartes adjacentes.


METAR-TAF: